Time;durP1;ratioP1;P1;durP2;ratioP2;P2;SDS_P1;SDS_P2;PMS_P1;PMS_P2;Temp;Humidity;BMP_temperature;BMP_pressure;BME280_temperature;BME280_humidity;BME280_pressure;Samples;Min_cycle;Max_cycle;Signal;HPM_P1;HPM_P2
2022/01/10 00:01:38;;;;;;;10.20;5.23;;;;;;;6.26;100.00;93188.44;5064064;28;20231;-78
2022/01/10 00:04:06;;;;;;;11.07;5.33;;;;;;;6.36;100.00;93193.00;5070126;28;20639;-76
2022/01/10 00:06:35;;;;;;;13.87;6.13;;;;;;;6.45;100.00;93199.38;5071009;28;20719;-78
2022/01/10 00:09:03;;;;;;;10.70;5.27;;;;;;;6.48;100.00;93189.38;5070938;28;20599;-77
2022/01/10 00:11:32;;;;;;;9.37;5.40;;;;;;;6.45;100.00;93192.44;5070101;28;20200;-78
2022/01/10 00:14:01;;;;;;;11.70;5.70;;;;;;;6.47;100.00;93194.75;5064674;28;20200;-77
2022/01/10 00:16:31;;;;;;;11.37;5.70;;;;;;;6.43;100.00;93197.03;5069984;28;20233;-77
2022/01/10 00:19:01;;;;;;;9.60;5.87;;;;;;;6.43;100.00;93191.09;5070999;28;20226;-77
2022/01/10 00:21:31;;;;;;;10.57;5.53;;;;;;;6.36;100.00;93187.84;5070477;28;20207;-78
2022/01/10 00:23:58;;;;;;;9.17;5.30;;;;;;;6.45;100.00;93192.44;5069189;28;20296;-79
2022/01/10 00:26:27;;;;;;;9.43;5.70;;;;;;;6.47;100.00;93198.13;5070058;28;20761;-80
2022/01/10 00:28:57;;;;;;;11.63;5.77;;;;;;;6.42;100.00;93192.88;5071050;28;20592;-79
2022/01/10 00:31:25;;;;;;;9.70;5.53;;;;;;;6.45;100.00;93195.00;5063917;28;20239;-79
2022/01/10 00:33:56;;;;;;;9.40;5.40;;;;;;;6.41;100.00;93187.94;5070455;28;20267;-79
2022/01/10 00:36:25;;;;;;;10.90;5.70;;;;;;;6.30;100.00;93166.31;5070180;28;20254;-79
2022/01/10 00:39:00;;;;;;;10.87;5.67;;;;;;;6.29;100.00;93188.00;5066398;28;20720;-80
2022/01/10 00:41:28;;;;;;;12.30;5.67;;;;;;;6.24;100.00;93178.34;5067217;28;20203;-79
2022/01/10 00:43:56;;;;;;;9.33;5.10;;;;;;;6.40;100.00;93194.91;5062191;28;20272;-79
2022/01/10 00:46:23;;;;;;;9.70;5.53;;;;;;;6.41;100.00;93185.34;5068199;28;20275;-79
2022/01/10 00:48:52;;;;;;;9.93;5.63;;;;;;;6.36;100.00;93186.06;5066603;28;20736;-79
2022/01/10 00:51:23;;;;;;;8.17;5.37;;;;;;;6.27;100.00;93188.19;5065401;28;20216;-79
2022/01/10 00:53:52;;;;;;;9.53;5.63;;;;;;;6.18;100.00;93181.81;5066898;28;20199;-79
2022/01/10 00:56:21;;;;;;;10.67;5.67;;;;;;;6.19;100.00;93190.34;5068001;28;20212;-78
2022/01/10 00:58:50;;;;;;;9.50;5.60;;;;;;;6.24;100.00;93177.56;5069740;28;20299;-77
2022/01/10 01:01:20;;;;;;;9.10;5.70;;;;;;;6.15;100.00;93187.44;5065275;28;20671;-78
2022/01/10 01:03:51;;;;;;;9.20;5.53;;;;;;;6.00;100.00;93184.53;5066837;28;20289;-78
2022/01/10 01:06:23;;;;;;;9.27;6.20;;;;;;;6.02;100.00;93186.91;5064138;28;20272;-78
2022/01/10 01:08:57;;;;;;;7.40;5.10;;;;;;;5.91;100.00;93175.59;5066607;28;21077;-78
2022/01/10 01:14:23;;;;;;;10.43;6.20;;;;;;;5.97;100.00;93177.28;5030749;28;20256;-77
2022/01/10 01:17:08;;;;;;;8.40;5.80;;;;;;;5.80;100.00;93158.28;5062280;28;20238;-78
2022/01/10 01:25:23;;;;;;;10.90;6.37;;;;;;;5.91;100.00;93174.81;5044916;28;20305;-78
2022/01/10 01:27:54;;;;;;;8.63;6.13;;;;;;;5.91;100.00;93167.88;5046777;28;20737;-78
2022/01/10 01:30:22;;;;;;;9.73;5.97;;;;;;;5.94;100.00;93170.00;5061368;28;20263;-78
2022/01/10 01:32:51;;;;;;;11.27;6.23;;;;;;;5.91;100.00;93165.28;5069725;28;20618;-78
2022/01/10 01:35:24;;;;;;;11.73;6.60;;;;;;;5.93;100.00;93165.84;5070208;28;20240;-79
2022/01/10 01:37:55;;;;;;;8.83;5.83;;;;;;;6.03;100.00;93165.28;5069508;28;20759;-78
2022/01/10 01:40:27;;;;;;;9.77;6.03;;;;;;;6.05;100.00;93155.50;5069378;28;20215;-78
2022/01/10 01:42:55;;;;;;;13.33;6.30;;;;;;;6.02;100.00;93148.22;5069633;28;20962;-77
2022/01/10 01:45:38;;;;;;;9.00;5.80;;;;;;;6.08;100.00;93152.47;5068854;28;20238;-78
2022/01/10 01:48:06;;;;;;;11.37;6.17;;;;;;;5.95;100.00;93148.34;5066418;28;20223;-77
2022/01/10 01:50:35;;;;;;;10.53;5.27;;;;;;;6.03;100.00;93148.00;5068224;28;20311;-78
2022/01/10 01:53:05;;;;;;;8.83;6.10;;;;;;;6.01;100.00;93147.44;5068762;28;20210;-78
2022/01/10 01:55:33;;;;;;;10.07;6.00;;;;;;;5.91;100.00;93144.66;5068756;28;20294;-78
2022/01/10 01:58:03;;;;;;;11.50;5.87;;;;;;;5.80;100.00;93144.66;5068735;28;20207;-78
2022/01/10 02:00:31;;;;;;;10.10;6.07;;;;;;;5.71;100.00;93147.56;5069669;28;20210;-78
2022/01/10 02:03:00;;;;;;;9.93;5.93;;;;;;;5.72;100.00;93143.19;5068847;28;20235;-78
2022/01/10 02:05:29;;;;;;;9.40;6.30;;;;;;;5.73;100.00;93140.41;5063578;28;20208;-78
2022/01/10 02:07:58;;;;;;;9.40;6.07;;;;;;;5.76;100.00;93146.09;5068033;28;20288;-78
2022/01/10 02:10:30;;;;;;;9.37;5.83;;;;;;;5.75;100.00;93137.59;5069335;28;20241;-78
2022/01/10 02:12:57;;;;;;;7.57;5.27;;;;;;;5.66;100.00;93124.25;5069305;28;20198;-78
2022/01/10 02:15:33;;;;;;;7.53;5.03;;;;;;;5.72;100.00;93141.41;5069212;28;21063;-78
2022/01/10 02:18:03;;;;;;;7.37;5.00;;;;;;;5.68;100.00;93132.53;5068774;28;20610;-78
2022/01/10 02:20:35;;;;;;;6.87;4.97;;;;;;;5.78;100.00;93136.34;5068839;28;20256;-78
2022/01/10 02:23:04;;;;;;;6.97;4.93;;;;;;;5.87;100.00;93143.53;5070010;28;20662;-78
2022/01/10 02:25:33;;;;;;;8.90;5.50;;;;;;;5.87;100.00;93135.81;5069082;28;20215;-78
2022/01/10 02:28:01;;;;;;;10.63;5.80;;;;;;;5.93;100.00;93149.59;5067731;28;20643;-78
2022/01/10 02:30:29;;;;;;;10.17;5.83;;;;;;;5.84;100.00;93150.91;5067760;28;20651;-78
2022/01/10 02:32:59;;;;;;;9.27;6.10;;;;;;;5.75;100.00;93142.72;5068690;28;20212;-78
2022/01/10 02:35:32;;;;;;;9.37;5.60;;;;;;;5.89;100.00;93151.06;5069302;28;20203;-79
2022/01/10 02:38:03;;;;;;;9.97;6.30;;;;;;;5.77;100.00;93147.69;5068079;28;20284;-78
2022/01/10 02:40:32;;;;;;;9.97;6.13;;;;;;;5.73;100.00;93130.09;5068402;28;20234;-78
2022/01/10 02:43:03;;;;;;;10.17;6.63;;;;;;;5.81;100.00;93152.16;5068846;28;20289;-79
2022/01/10 02:45:33;;;;;;;9.17;6.20;;;;;;;5.77;100.00;93147.69;5068978;28;20209;-78
2022/01/10 02:48:02;;;;;;;8.97;6.67;;;;;;;5.82;100.00;93148.56;5068486;28;20242;-77
2022/01/10 02:50:32;;;;;;;12.57;7.23;;;;;;;5.73;100.00;93148.13;5068353;28;20221;-76
2022/01/10 02:53:05;;;;;;;11.30;6.80;;;;;;;5.87;100.00;93147.91;5068440;28;20288;-79
2022/01/10 02:55:34;;;;;;;11.63;6.50;;;;;;;5.86;100.00;93130.91;5067954;28;20264;-77
2022/01/10 02:58:02;;;;;;;12.03;7.20;;;;;;;5.82;100.00;93150.34;5067861;28;20273;-76
2022/01/10 03:00:31;;;;;;;10.10;6.87;;;;;;;5.84;100.00;93138.03;5068652;28;20622;-76
2022/01/10 03:03:06;;;;;;;11.40;6.90;;;;;;;5.84;100.00;93143.97;5068239;28;20301;-77
2022/01/10 03:05:35;;;;;;;11.90;6.60;;;;;;;5.89;100.00;93153.63;5061512;28;20217;-77
2022/01/10 03:08:07;;;;;;;10.20;6.37;;;;;;;5.91;100.00;93154.19;5066688;28;20219;-76
2022/01/10 03:10:35;;;;;;;9.23;6.07;;;;;;;5.95;100.00;93161.22;5062591;28;20234;-77
2022/01/10 03:13:05;;;;;;;9.07;6.67;;;;;;;5.95;100.00;93158.66;5067942;28;20588;-77
2022/01/10 03:15:34;;;;;;;12.23;6.50;;;;;;;5.95;100.00;93150.13;5068209;28;20204;-77
2022/01/10 03:18:03;;;;;;;10.93;6.90;;;;;;;5.94;100.00;93161.47;5072722;28;20219;-76
2022/01/10 03:20:32;;;;;;;14.03;6.70;;;;;;;5.86;100.00;93152.28;5067828;28;20266;-77
2022/01/10 03:23:01;;;;;;;9.60;6.47;;;;;;;5.85;100.00;93157.63;5069126;28;20234;-77
2022/01/10 03:25:32;;;;;;;11.17;7.10;;;;;;;5.75;100.00;93147.88;5067970;28;20786;-76
2022/01/10 03:28:02;;;;;;;11.80;7.20;;;;;;;5.87;100.00;93153.06;5066741;28;20236;-76
2022/01/10 03:30:30;;;;;;;12.90;7.47;;;;;;;5.75;100.00;93160.78;5067846;28;20557;-76
2022/01/10 03:33:01;;;;;;;13.50;7.70;;;;;;;5.79;100.00;93159.31;5068404;28;20206;-76
2022/01/10 03:35:29;;;;;;;14.00;7.83;;;;;;;5.84;100.00;93156.06;5068804;28;20236;-77
2022/01/10 03:37:58;;;;;;;14.30;7.93;;;;;;;5.83;100.00;93150.13;5059961;28;20732;-76
2022/01/10 03:40:26;;;;;;;11.10;7.70;;;;;;;5.73;100.00;93148.13;5067410;28;20292;-76
2022/01/10 03:42:57;;;;;;;12.87;8.27;;;;;;;5.69;100.00;93157.31;5067942;28;20224;-76
2022/01/10 03:45:25;;;;;;;11.50;7.57;;;;;;;5.67;100.00;93151.59;5061703;28;20205;-77
2022/01/10 03:47:54;;;;;;;15.53;9.17;;;;;;;5.49;100.00;93151.72;5070725;28;20593;-76
2022/01/10 03:50:22;;;;;;;11.83;8.20;;;;;;;5.51;100.00;93162.56;5068302;28;20215;-76
2022/01/10 03:52:52;;;;;;;12.60;8.27;;;;;;;5.52;100.00;93164.16;5071964;28;20211;-76
2022/01/10 03:55:20;;;;;;;20.83;9.27;;;;;;;5.36;100.00;93162.25;5072463;28;20253;-77
2022/01/10 03:57:49;;;;;;;17.17;9.87;;;;;;;5.33;100.00;93157.53;5073162;28;20213;-77
2022/01/10 04:00:20;;;;;;;16.83;9.47;;;;;;;5.29;100.00;93163.34;5071556;28;20239;-77
2022/01/10 04:02:54;;;;;;;14.40;9.33;;;;;;;5.25;100.00;93169.94;5071605;28;20200;-78
2022/01/10 04:05:24;;;;;;;15.00;9.20;;;;;;;5.16;100.00;93172.06;5070934;28;20255;-78
2022/01/10 04:07:53;;;;;;;14.03;8.40;;;;;;;5.10;100.00;93171.16;5070646;28;20264;-71
2022/01/10 04:10:21;;;;;;;13.17;8.63;;;;;;;5.04;100.00;93168.69;5070228;28;20216;-71
2022/01/10 04:12:50;;;;;;;14.60;8.10;;;;;;;5.05;100.00;93175.41;5070455;28;20205;-70
2022/01/10 04:15:19;;;;;;;13.10;7.87;;;;;;;5.02;100.00;93181.00;5070861;28;20198;-70
2022/01/10 04:17:52;;;;;;;11.23;7.60;;;;;;;5.00;100.00;93176.06;5076235;28;20270;-69
2022/01/10 04:20:20;;;;;;;12.47;7.17;;;;;;;4.96;100.00;93184.44;5070476;28;20238;-69
2022/01/10 04:22:51;;;;;;;10.03;6.30;;;;;;;4.83;100.00;93189.75;5069933;28;20209;-70
2022/01/10 04:25:20;;;;;;;10.97;6.13;;;;;;;4.78;100.00;93194.78;5070090;28;20278;-69
2022/01/10 04:27:49;;;;;;;8.83;5.70;;;;;;;4.71;100.00;93194.88;5069667;28;20201;-70
2022/01/10 04:30:19;;;;;;;8.17;5.53;;;;;;;4.78;100.00;93193.00;5068931;28;20210;-69
2022/01/10 04:32:49;;;;;;;8.27;4.83;;;;;;;4.81;100.00;93202.06;5069799;28;20205;-69
2022/01/10 04:35:16;;;;;;;7.43;4.73;;;;;;;4.92;100.00;93204.69;5052699;28;20194;-69
2022/01/10 04:37:44;;;;;;;7.40;4.43;;;;;;;4.96;100.00;93202.47;5074386;28;20271;-70
2022/01/10 04:40:14;;;;;;;7.13;4.47;;;;;;;4.86;100.00;93205.56;5070141;28;20216;-70
2022/01/10 04:42:41;;;;;;;5.57;3.97;;;;;;;4.78;100.00;93203.28;5070657;28;20210;-69
2022/01/10 04:45:09;;;;;;;5.70;4.40;;;;;;;4.74;100.00;93212.44;5068551;28;20261;-70
2022/01/10 04:47:37;;;;;;;6.63;4.70;;;;;;;4.67;100.00;93209.19;5071038;28;20202;-70
2022/01/10 04:50:35;;;;;;;7.60;4.57;;;;;;;4.78;100.00;93208.44;5067676;28;20304;-70
2022/01/10 04:53:03;;;;;;;8.57;5.07;;;;;;;4.69;100.00;93214.09;5068571;28;20202;-70
2022/01/10 04:55:31;;;;;;;8.27;4.93;;;;;;;4.69;100.00;93219.25;5069005;28;20210;-70
2022/01/10 04:57:59;;;;;;;9.47;5.17;;;;;;;4.75;100.00;93216.59;5068517;28;20625;-70
2022/01/10 05:00:27;;;;;;;9.87;5.70;;;;;;;4.69;100.00;93216.66;5068444;28;20613;-72
2022/01/10 05:02:54;;;;;;;7.63;5.17;;;;;;;4.62;100.00;93218.56;5067987;28;20198;-70
2022/01/10 05:05:23;;;;;;;7.47;5.40;;;;;;;4.61;100.00;93216.97;5067926;28;20289;-70
2022/01/10 05:07:51;;;;;;;7.83;5.23;;;;;;;4.63;100.00;93227.81;5068775;28;20206;-70
2022/01/10 05:10:18;;;;;;;9.73;6.83;;;;;;;4.68;100.00;93220.22;5068194;28;20245;-69
2022/01/10 05:12:45;;;;;;;10.07;6.03;;;;;;;4.55;100.00;93226.34;5068463;28;20216;-70
2022/01/10 05:15:13;;;;;;;10.80;6.27;;;;;;;4.55;100.00;93228.91;5068520;28;20661;-71
2022/01/10 05:17:40;;;;;;;10.03;6.30;;;;;;;4.53;100.00;93223.22;5073908;28;20328;-70
2022/01/10 05:20:08;;;;;;;8.83;5.93;;;;;;;4.56;100.00;93222.75;5067687;28;21023;-70
2022/01/10 05:22:38;;;;;;;10.13;6.23;;;;;;;4.64;100.00;93226.81;5068119;28;20200;-70
2022/01/10 05:25:06;;;;;;;7.70;5.80;;;;;;;4.59;100.00;93224.88;5067455;28;20233;-70
2022/01/10 05:27:35;;;;;;;9.73;6.57;;;;;;;4.72;100.00;93232.47;5067560;28;20211;-70
2022/01/10 05:30:04;;;;;;;14.87;7.47;;;;;;;4.72;100.00;93229.88;5067625;28;20797;-76
2022/01/10 05:32:33;;;;;;;10.67;7.43;;;;;;;4.86;100.00;93245.94;5061239;28;20794;-70
2022/01/10 05:35:02;;;;;;;13.53;7.60;;;;;;;4.92;100.00;93235.56;5068052;28;20288;-71
2022/01/10 05:37:30;;;;;;;12.90;7.93;;;;;;;4.96;100.00;93248.78;5068178;28;20233;-71
2022/01/10 05:40:19;;;;;;;17.83;8.40;;;;;;;5.01;100.00;93249.69;5061335;28;20210;-71
2022/01/10 05:42:46;;;;;;;17.97;9.03;;;;;;;4.99;100.00;93250.94;5068896;28;20203;-71
2022/01/10 05:45:13;;;;;;;14.43;8.87;;;;;;;5.02;100.00;93243.53;5068424;28;20705;-71
2022/01/10 05:47:43;;;;;;;15.33;9.30;;;;;;;4.99;100.00;93251.69;5068948;28;20241;-72
2022/01/10 05:50:14;;;;;;;15.40;9.50;;;;;;;4.97;100.00;93248.56;5067261;28;20217;-71
2022/01/10 05:52:42;;;;;;;16.27;9.10;;;;;;;4.97;100.00;93248.56;5067898;28;20210;-72
2022/01/10 05:55:13;;;;;;;16.40;9.50;;;;;;;4.76;100.00;93243.88;5068533;28;20656;-73
2022/01/10 05:57:42;;;;;;;16.17;10.17;;;;;;;4.96;100.00;93259.09;5067111;28;20238;-71
2022/01/10 06:00:11;;;;;;;18.47;9.80;;;;;;;4.97;100.00;93256.28;5063204;28;20202;-72
2022/01/10 06:02:39;;;;;;;13.50;8.80;;;;;;;5.00;100.00;93260.19;5067467;28;20206;-72
2022/01/10 06:05:09;;;;;;;13.03;8.57;;;;;;;4.89;100.00;93268.66;5067998;28;20229;-72
2022/01/10 06:07:38;;;;;;;12.53;7.80;;;;;;;4.84;100.00;93263.38;5065330;28;20254;-73
2022/01/10 06:10:09;;;;;;;14.50;8.67;;;;;;;4.79;100.00;93266.59;5067284;28;20203;-74
2022/01/10 06:12:40;;;;;;;12.23;7.93;;;;;;;4.74;100.00;93268.25;5065449;28;20224;-75
2022/01/10 06:15:09;;;;;;;10.70;7.50;;;;;;;4.77;100.00;93280.69;5055998;28;20200;-75
2022/01/10 06:17:44;;;;;;;11.57;7.90;;;;;;;4.82;100.00;93273.13;5064324;28;20199;-70
2022/01/10 06:20:14;;;;;;;15.13;7.93;;;;;;;4.76;100.00;93271.41;5059509;28;20206;-72
2022/01/10 06:22:42;;;;;;;18.70;11.13;;;;;;;4.86;100.00;93281.97;5060843;28;20205;-72
2022/01/10 06:25:13;;;;;;;17.93;10.60;;;;;;;4.92;100.00;93281.09;5067701;28;20332;-71
2022/01/10 06:27:43;;;;;;;15.13;9.47;;;;;;;4.87;100.00;93291.25;5068616;28;20205;-72
2022/01/10 06:30:13;;;;;;;15.43;9.80;;;;;;;4.88;100.00;93285.09;5068432;28;20720;-71
2022/01/10 06:32:41;;;;;;;16.93;9.40;;;;;;;4.88;100.00;93285.88;5068601;28;20226;-71
2022/01/10 06:35:11;;;;;;;19.60;9.53;;;;;;;4.87;100.00;93288.69;5068708;28;20886;-72
2022/01/10 06:37:39;;;;;;;18.73;10.93;;;;;;;4.80;100.00;93296.47;5068386;28;20623;-71
2022/01/10 06:40:09;;;;;;;18.17;11.00;;;;;;;4.80;100.00;93291.34;5068165;28;20910;-71
2022/01/10 06:42:38;;;;;;;17.83;11.03;;;;;;;4.82;100.00;93291.91;5069033;28;20212;-71
2022/01/10 06:45:16;;;;;;;17.97;10.77;;;;;;;4.70;100.00;93291.06;5067914;28;20311;-70
2022/01/10 06:47:45;;;;;;;18.47;10.53;;;;;;;4.62;100.00;93295.72;5069901;28;20239;-70
2022/01/10 06:50:13;;;;;;;17.47;10.80;;;;;;;4.63;100.00;93299.84;5067659;28;20210;-70
2022/01/10 06:52:42;;;;;;;21.13;11.43;;;;;;;4.72;100.00;93298.56;5067839;28;20213;-71
2022/01/10 06:55:13;;;;;;;19.93;10.83;;;;;;;4.77;100.00;93303.84;5066042;28;20602;-71
2022/01/10 06:57:41;;;;;;;19.50;11.80;;;;;;;4.81;100.00;93302.41;5068028;28;20198;-71
2022/01/10 07:00:14;;;;;;;26.83;11.77;;;;;;;4.91;100.00;93300.91;5067205;28;20201;-71
2022/01/10 07:02:43;;;;;;;19.37;12.17;;;;;;;5.02;100.00;93309.69;5068479;28;20198;-77
2022/01/10 07:05:12;;;;;;;19.20;12.63;;;;;;;5.02;100.00;93304.53;5068415;28;20261;-77
2022/01/10 07:07:41;;;;;;;20.63;12.63;;;;;;;5.08;100.00;93313.94;5063788;28;20225;-77
2022/01/10 07:10:10;;;;;;;21.37;12.70;;;;;;;5.05;100.00;93312.59;5065882;28;20199;-77
2022/01/10 07:12:38;;;;;;;20.47;12.60;;;;;;;5.13;100.00;93320.03;5067428;28;20199;-77
2022/01/10 07:15:08;;;;;;;20.93;13.43;;;;;;;5.15;100.00;93323.19;5066627;28;20264;-77
2022/01/10 07:17:38;;;;;;;20.43;13.40;;;;;;;5.05;100.00;93309.25;5069385;28;20301;-77
2022/01/10 07:20:08;;;;;;;25.07;13.40;;;;;;;5.09;100.00;93330.97;5067375;28;20314;-76
2022/01/10 07:22:38;;;;;;;20.93;12.60;;;;;;;5.08;100.00;93327.59;5068320;28;20220;-79
2022/01/10 07:25:08;;;;;;;20.63;12.93;;;;;;;4.94;100.00;93317.69;5070958;28;20228;-78
2022/01/10 07:27:36;;;;;;;20.43;13.50;;;;;;;5.01;100.00;93337.22;5066679;28;20230;-79
2022/01/10 07:30:05;;;;;;;21.67;13.03;;;;;;;5.06;100.00;93339.13;5067366;28;20241;-84
2022/01/10 07:32:33;;;;;;;23.10;13.60;;;;;;;5.07;100.00;93340.72;5072768;28;20242;-80
2022/01/10 07:35:03;;;;;;;31.83;13.47;;;;;;;5.09;100.00;93336.91;5071789;28;20206;-79
2022/01/10 07:37:30;;;;;;;20.93;13.20;;;;;;;5.12;100.00;93351.94;5070885;28;20991;-77
2022/01/10 07:39:59;;;;;;;27.07;13.40;;;;;;;5.19;100.00;93354.44;5072727;28;20211;-80
2022/01/10 07:42:29;;;;;;;24.20;13.53;;;;;;;5.17;100.00;93340.22;5072852;28;20214;-79
2022/01/10 07:44:58;;;;;;;27.23;16.03;;;;;;;5.29;100.00;93352.09;5071708;28;20226;-79
2022/01/10 07:47:28;;;;;;;27.13;16.17;;;;;;;5.42;100.00;93354.53;5073139;28;20207;-80
2022/01/10 07:49:57;;;;;;;25.53;14.90;;;;;;;5.37;100.00;93353.63;5073196;28;20286;-85
2022/01/10 07:52:29;;;;;;;29.07;16.03;;;;;;;5.40;100.00;93358.31;5072182;28;20206;-75
2022/01/10 07:54:57;;;;;;;27.40;15.47;;;;;;;5.34;100.00;93357.38;5073179;28;20249;-77
2022/01/10 07:57:25;;;;;;;24.40;14.90;;;;;;;5.35;100.00;93361.53;5070890;28;20221;-79
2022/01/10 07:59:53;;;;;;;25.33;13.83;;;;;;;5.17;100.00;93340.22;5071417;28;20211;-79
2022/01/10 08:02:25;;;;;;;24.63;14.07;;;;;;;5.13;100.00;93368.16;5064507;28;20214;-79
2022/01/10 08:04:55;;;;;;;23.00;11.80;;;;;;;5.02;100.00;93364.50;5072170;28;20306;-80
2022/01/10 08:07:26;;;;;;;21.10;12.27;;;;;;;4.97;100.00;93363.59;5071393;28;20206;-79
2022/01/10 08:09:56;;;;;;;17.17;10.87;;;;;;;4.69;100.00;93337.56;5071334;28;20206;-82
2022/01/10 08:12:24;;;;;;;16.10;9.90;;;;;;;4.87;100.00;93360.75;5072574;28;20195;-80
2022/01/10 08:14:53;;;;;;;18.47;10.33;;;;;;;4.95;100.00;93363.03;5071843;28;20202;-80
2022/01/10 08:17:23;;;;;;;17.77;10.10;;;;;;;4.43;100.00;93312.91;5076041;28;20205;-79
2022/01/10 08:19:55;;;;;;;15.57;9.57;;;;;;;4.82;100.00;93365.75;5070843;28;20208;-80
2022/01/10 08:22:23;;;;;;;17.40;9.33;;;;;;;4.74;100.00;93366.00;5070900;28;20220;-78
2022/01/10 08:24:54;;;;;;;18.57;10.30;;;;;;;4.75;100.00;93362.47;5066385;28;20257;-79
2022/01/10 08:27:25;;;;;;;14.00;8.27;;;;;;;4.69;100.00;93364.09;5070339;28;20251;-80
2022/01/10 08:30:35;;;;;;;14.83;8.20;;;;;;;4.77;100.00;93374.09;5071642;28;20701;-84
2022/01/10 08:33:07;;;;;;;13.30;8.60;;;;;;;4.19;100.00;93281.13;5072791;28;20197;-82
2022/01/10 08:35:36;;;;;;;12.67;8.40;;;;;;;4.76;100.00;93379.47;5072589;28;20214;-81
2022/01/10 08:38:05;;;;;;;13.07;7.07;;;;;;;4.77;100.00;93357.88;5059141;28;20198;-76
2022/01/10 08:40:49;;;;;;;12.27;7.53;;;;;;;4.84;100.00;93376.63;5072299;28;20218;-88
2022/01/10 08:43:28;;;;;;;10.87;6.87;;;;;;;4.63;100.00;93357.22;5060829;28;20669;-86
2022/01/10 08:46:01;;;;;;;11.90;6.43;;;;;;;4.65;100.00;93385.34;5058148;28;20686;-87
2022/01/10 08:48:30;;;;;;;9.80;6.70;;;;;;;4.29;100.00;93325.13;5066228;28;20214;-87
2022/01/10 08:51:39;;;;;;;10.77;6.40;;;;;;;4.39;100.00;93334.91;5066298;28;20206;-87
2022/01/10 08:54:08;;;;;;;10.67;6.70;;;;;;;4.65;100.00;93393.81;5061205;28;20212;-88
2022/01/10 08:56:39;;;;;;;11.43;6.93;;;;;;;4.66;100.00;93390.25;5071283;28;20209;-89
2022/01/10 08:59:11;;;;;;;10.27;6.63;;;;;;;4.69;100.00;93386.47;5071605;28;20301;-86
2022/01/10 09:01:39;;;;;;;16.90;7.47;;;;;;;4.78;100.00;93393.69;5071616;28;20253;-88
2022/01/10 09:04:09;;;;;;;10.07;6.93;;;;;;;4.86;100.00;93387.47;5070879;28;20782;-87
2022/01/10 09:06:38;;;;;;;18.03;7.23;;;;;;;4.80;100.00;93370.31;5070772;28;20213;-81
2022/01/10 09:09:08;;;;;;;9.97;6.53;;;;;;;4.71;100.00;93377.53;5064006;28;20201;-81
2022/01/10 09:11:38;;;;;;;12.63;6.53;;;;;;;4.81;100.00;93393.28;5071114;28;20202;-81
2022/01/10 09:14:06;;;;;;;10.50;6.57;;;;;;;4.86;100.00;93395.97;5070235;28;20255;-81
2022/01/10 09:16:35;;;;;;;9.60;6.73;;;;;;;4.77;100.00;93392.13;5073779;28;20661;-81
2022/01/10 09:19:04;;;;;;;12.53;6.97;;;;;;;4.74;100.00;93394.31;5070073;28;20198;-80
2022/01/10 09:21:33;;;;;;;11.30;7.23;;;;;;;4.64;100.00;93389.69;5063788;28;20292;-81
2022/01/10 09:24:01;;;;;;;10.73;7.17;;;;;;;4.59;100.00;93385.16;5070309;28;20209;-81
2022/01/10 09:26:30;;;;;;;10.67;7.23;;;;;;;4.67;100.00;93388.47;5069759;28;20214;-82
2022/01/10 09:29:00;;;;;;;12.13;7.20;;;;;;;4.63;100.00;93377.03;5069943;28;20680;-81
2022/01/10 09:31:29;;;;;;;10.40;6.97;;;;;;;4.58;100.00;93383.59;5069685;28;20732;-82
2022/01/10 09:33:59;;;;;;;10.63;6.50;;;;;;;4.59;100.00;93382.59;5070027;28;20259;-81
2022/01/10 09:36:29;;;;;;;10.73;7.50;;;;;;;4.54;100.00;93387.59;5070063;28;20217;-80
2022/01/10 09:39:01;;;;;;;14.23;7.23;;;;;;;4.43;100.00;93384.94;5069970;28;20197;-82
2022/01/10 09:41:32;;;;;;;11.43;7.07;;;;;;;4.45;100.00;93383.72;5069648;28;20280;-82
2022/01/10 09:44:04;;;;;;;17.70;7.43;;;;;;;4.51;100.00;93384.66;5063107;28;20315;-84
2022/01/10 09:46:33;;;;;;;11.70;6.97;;;;;;;4.39;100.00;93361.41;5070695;28;20209;-83
2022/01/10 09:49:02;;;;;;;13.73;7.67;;;;;;;4.48;100.00;93372.22;5069736;28;20197;-81
2022/01/10 09:51:30;;;;;;;12.90;7.57;;;;;;;4.58;100.00;93377.66;5062770;28;20751;-81
2022/01/10 09:53:59;;;;;;;13.43;8.03;;;;;;;4.71;100.00;93387.81;5069752;28;20205;-81
2022/01/10 09:56:30;;;;;;;14.70;8.70;;;;;;;4.59;100.00;93399.81;5069510;28;20203;-80
2022/01/10 09:58:59;;;;;;;13.43;8.30;;;;;;;4.51;100.00;93382.88;5070787;28;20241;-82
2022/01/10 10:01:31;;;;;;;13.67;8.53;;;;;;;4.52;100.00;93387.03;5069401;28;20684;-82
2022/01/10 10:04:01;;;;;;;12.87;8.03;;;;;;;4.65;100.00;93395.63;5068161;28;20740;-81
2022/01/10 10:06:32;;;;;;;14.10;7.90;;;;;;;4.68;100.00;93392.59;5069539;28;20275;-82
2022/01/10 10:09:02;;;;;;;12.40;8.00;;;;;;;4.67;100.00;93396.97;5069661;28;20194;-81
2022/01/10 10:11:47;;;;;;;15.17;7.90;;;;;;;4.74;100.00;93402.03;5070187;28;20293;-81
2022/01/10 10:14:18;;;;;;;14.83;8.20;;;;;;;4.83;100.00;93398.19;5069485;28;21018;-82
2022/01/10 10:16:55;;;;;;;17.47;9.33;;;;;;;4.81;100.00;93397.63;5073172;28;20264;-81
2022/01/10 10:19:25;;;;;;;16.13;9.27;;;;;;;4.78;100.00;93391.13;5063838;28;20206;-82
2022/01/10 10:21:56;;;;;;;15.93;8.83;;;;;;;4.81;100.00;93395.06;5069586;28;20296;-81
2022/01/10 10:24:26;;;;;;;14.23;8.40;;;;;;;4.89;100.00;93400.69;5068748;28;20216;-81
2022/01/10 10:26:56;;;;;;;16.13;8.93;;;;;;;4.87;100.00;93396.78;5064956;28;20628;-81
2022/01/10 10:29:26;;;;;;;16.27;9.17;;;;;;;4.77;100.00;93381.03;5069483;28;20451;-81
2022/01/10 10:31:57;;;;;;;14.73;8.33;;;;;;;5.01;100.00;93395.63;5070374;28;20293;-80
2022/01/10 10:34:28;;;;;;;15.23;8.60;;;;;;;4.88;100.00;93393.19;5070803;28;20216;-81
2022/01/10 10:37:05;;;;;;;15.83;8.50;;;;;;;4.82;100.00;93376.81;5068453;28;20680;-81
2022/01/10 10:39:36;;;;;;;16.53;9.00;;;;;;;4.91;100.00;93379.88;5069079;28;20669;-80
2022/01/10 10:42:08;;;;;;;17.30;9.03;;;;;;;4.90;100.00;93388.63;5069007;28;20650;-82
2022/01/10 10:44:36;;;;;;;16.07;9.03;;;;;;;4.92;100.00;93386.63;5069872;28;20253;-88
2022/01/10 10:47:07;;;;;;;15.07;9.10;;;;;;;4.97;100.00;93387.53;5057887;28;20276;-86
2022/01/10 10:49:41;;;;;;;13.47;8.83;;;;;;;4.82;100.00;93381.97;5069963;28;20265;-86
2022/01/10 10:52:12;;;;;;;13.97;8.63;;;;;;;4.75;100.00;93388.19;5062445;28;20206;-86
2022/01/10 10:54:42;;;;;;;14.07;8.33;;;;;;;4.69;100.00;93389.03;5063613;28;20260;-87
2022/01/10 10:57:14;;;;;;;14.57;8.50;;;;;;;4.72;100.00;93393.75;5069820;28;20201;-86
2022/01/10 10:59:43;;;;;;;13.87;8.13;;;;;;;4.71;100.00;93387.81;5071238;28;20233;-81
2022/01/10 11:02:15;;;;;;;13.33;7.77;;;;;;;4.66;100.00;93392.81;5072940;28;20283;-81
2022/01/10 11:04:43;;;;;;;13.60;8.00;;;;;;;4.68;100.00;93395.16;5072984;28;20197;-81
2022/01/10 11:07:12;;;;;;;11.13;7.57;;;;;;;4.68;100.00;93395.16;5072952;28;20703;-81
2022/01/10 11:09:42;;;;;;;12.33;7.53;;;;;;;4.67;100.00;93398.75;5072748;28;20209;-81
2022/01/10 11:12:13;;;;;;;8.83;5.97;;;;;;;4.63;100.00;93400.16;5072419;28;20257;-81
2022/01/10 11:14:42;;;;;;;10.53;6.50;;;;;;;4.45;100.00;93390.63;5073927;28;20204;-88
2022/01/10 11:17:22;;;;;;;14.23;6.70;;;;;;;4.48;100.00;93396.16;5073272;28;20651;-87
2022/01/10 11:20:12;;;;;;;11.23;6.40;;;;;;;4.44;100.00;93395.00;5073389;28;20243;-87
2022/01/10 11:22:43;;;;;;;13.90;7.47;;;;;;;4.36;100.00;93395.25;5073805;28;20208;-87
2022/01/10 11:25:22;;;;;;;13.43;7.23;;;;;;;4.31;100.00;93395.13;5065964;28;20195;-86
2022/01/10 11:27:52;;;;;;;13.03;7.50;;;;;;;4.23;100.00;93402.31;5072987;28;20205;-86
2022/01/10 11:30:31;;;;;;;14.43;9.23;;;;;;;4.23;100.00;93399.75;5062816;28;20624;-87
2022/01/10 11:33:04;;;;;;;16.10;9.93;;;;;;;4.27;100.00;93406.81;5071267;28;20284;-87
2022/01/10 11:35:38;;;;;;;15.53;9.60;;;;;;;4.18;100.00;93405.53;5073444;28;20248;-87
2022/01/10 11:38:32;;;;;;;13.67;8.33;;;;;;;4.21;100.00;93402.53;5072525;28;20309;-87
2022/01/10 11:41:03;;;;;;;11.83;7.37;;;;;;;4.17;100.00;93400.56;5069993;28;20209;-87
2022/01/10 11:43:35;;;;;;;12.93;7.53;;;;;;;4.18;100.00;93395.25;5073256;28;20240;-89
2022/01/10 11:46:26;;;;;;;14.13;6.90;;;;;;;4.22;100.00;93398.94;5071766;28;20229;-87
2022/01/10 11:49:00;;;;;;;12.23;6.87;;;;;;;4.24;100.00;93403.91;5068811;28;20206;-89
2022/01/10 11:51:34;;;;;;;11.27;7.00;;;;;;;4.25;100.00;93405.44;5072199;28;20235;-89